sensor_id;sensor_type;location;lat;lon;timestamp;pressure;altitude;pressure_sealevel;temperature;humidity
804;BME280;25687;49.976;8.240;2022-07-29T00:01:18;99926.56;;;17.56;69.60
804;BME280;25687;49.976;8.240;2022-07-29T00:03:44;99918.81;;;18.35;61.69
804;BME280;25687;49.976;8.240;2022-07-29T00:06:09;99910.47;;;18.98;58.29
804;BME280;25687;49.976;8.240;2022-07-29T00:08:34;99904.03;;;18.93;60.53
804;BME280;25687;49.976;8.240;2022-07-29T00:10:59;99920.19;;;18.49;65.29
804;BME280;25687;49.976;8.240;2022-07-29T00:13:25;99912.72;;;17.66;73.43
804;BME280;25687;49.976;8.240;2022-07-29T00:15:50;99913.03;;;17.22;77.27
804;BME280;25687;49.976;8.240;2022-07-29T00:18:15;99905.97;;;17.43;71.11
804;BME280;25687;49.976;8.240;2022-07-29T00:20:41;99906.25;;;17.00;79.34
804;BME280;25687;49.976;8.240;2022-07-29T00:23:06;99899.75;;;17.25;73.96
804;BME280;25687;49.976;8.240;2022-07-29T00:25:32;99897.00;;;17.77;71.50
804;BME280;25687;49.976;8.240;2022-07-29T00:27:57;99890.88;;;18.27;66.18
804;BME280;25687;49.976;8.240;2022-07-29T00:30:22;99897.28;;;18.52;65.83
804;BME280;25687;49.976;8.240;2022-07-29T00:32:48;99890.22;;;18.73;64.64
804;BME280;25687;49.976;8.240;2022-07-29T00:35:13;99888.28;;;18.94;61.37
804;BME280;25687;49.976;8.240;2022-07-29T00:37:57;99892.00;;;19.19;60.44
804;BME280;25687;49.976;8.240;2022-07-29T00:40:23;99885.47;;;19.33;66.00
804;BME280;25687;49.976;8.240;2022-07-29T00:42:51;99883.88;;;19.50;59.86
804;BME280;25687;49.976;8.240;2022-07-29T00:45:17;99881.47;;;19.57;60.45
804;BME280;25687;49.976;8.240;2022-07-29T00:47:42;99886.34;;;19.70;61.31
804;BME280;25687;49.976;8.240;2022-07-29T00:50:10;99886.63;;;19.67;66.24
804;BME280;25687;49.976;8.240;2022-07-29T00:52:37;99896.63;;;19.72;68.85
804;BME280;25687;49.976;8.240;2022-07-29T00:55:04;99892.38;;;19.71;71.53
804;BME280;25687;49.976;8.240;2022-07-29T00:57:30;99893.19;;;19.53;72.73
804;BME280;25687;49.976;8.240;2022-07-29T00:59:55;99881.72;;;19.64;74.90
804;BME280;25687;49.976;8.240;2022-07-29T01:02:20;99879.41;;;19.61;71.13
804;BME280;25687;49.976;8.240;2022-07-29T01:04:46;99871.41;;;19.44;73.04
804;BME280;25687;49.976;8.240;2022-07-29T01:07:11;99877.03;;;19.22;77.48
804;BME280;25687;49.976;8.240;2022-07-29T01:09:37;99879.97;;;18.71;86.12
804;BME280;25687;49.976;8.240;2022-07-29T01:12:04;99873.31;;;18.29;94.63
804;BME280;25687;49.976;8.240;2022-07-29T01:14:30;99886.34;;;18.19;99.37
804;BME280;25687;49.976;8.240;2022-07-29T01:17:04;99886.09;;;18.03;100.00
804;BME280;25687;49.976;8.240;2022-07-29T01:19:51;99885.00;;;17.96;100.00
804;BME280;25687;49.976;8.240;2022-07-29T01:28:06;99880.66;;;17.36;100.00
804;BME280;25687;49.976;8.240;2022-07-29T01:30:35;99872.75;;;17.06;100.00
804;BME280;25687;49.976;8.240;2022-07-29T01:33:03;99876.19;;;17.07;100.00
804;BME280;25687;49.976;8.240;2022-07-29T01:35:37;99877.97;;;17.16;100.00
804;BME280;25687;49.976;8.240;2022-07-29T01:38:12;99881.97;;;17.20;100.00
804;BME280;25687;49.976;8.240;2022-07-29T01:40:54;99877.34;;;17.34;100.00
804;BME280;25687;49.976;8.240;2022-07-29T01:43:29;99875.16;;;17.29;100.00
804;BME280;25687;49.976;8.240;2022-07-29T01:45:59;99861.72;;;17.24;100.00
804;BME280;25687;49.976;8.240;2022-07-29T01:48:37;99857.63;;;17.21;100.00
804;BME280;25687;49.976;8.240;2022-07-29T01:51:08;99853.53;;;17.29;100.00
804;BME280;25687;49.976;8.240;2022-07-29T01:54:14;99864.50;;;17.32;100.00
804;BME280;25687;49.976;8.240;2022-07-29T01:56:42;99872.72;;;17.37;100.00
804;BME280;25687;49.976;8.240;2022-07-29T01:59:10;99875.31;;;17.37;100.00
804;BME280;25687;49.976;8.240;2022-07-29T02:01:36;99881.72;;;17.23;100.00
804;BME280;25687;49.976;8.240;2022-07-29T02:04:03;99869.47;;;17.04;100.00
804;BME280;25687;49.976;8.240;2022-07-29T02:06:32;99855.50;;;16.96;100.00
804;BME280;25687;49.976;8.240;2022-07-29T02:08:59;99841.03;;;16.82;100.00
804;BME280;25687;49.976;8.240;2022-07-29T02:11:25;99841.13;;;16.70;100.00
804;BME280;25687;49.976;8.240;2022-07-29T02:13:52;99844.38;;;16.62;100.00
804;BME280;25687;49.976;8.240;2022-07-29T02:16:21;99841.97;;;16.71;100.00
804;BME280;25687;49.976;8.240;2022-07-29T02:18:47;99848.31;;;16.88;100.00
804;BME280;25687;49.976;8.240;2022-07-29T02:21:19;99838.44;;;16.82;100.00
804;BME280;25687;49.976;8.240;2022-07-29T02:23:46;99839.22;;;16.72;100.00
804;BME280;25687;49.976;8.240;2022-07-29T02:26:13;99842.78;;;16.71;100.00
804;BME280;25687;49.976;8.240;2022-07-29T02:28:39;99839.63;;;16.68;100.00
804;BME280;25687;49.976;8.240;2022-07-29T02:31:06;99844.09;;;16.66;100.00
804;BME280;25687;49.976;8.240;2022-07-29T02:33:32;99847.84;;;16.73;100.00
804;BME280;25687;49.976;8.240;2022-07-29T02:35:59;99851.94;;;16.75;100.00
804;BME280;25687;49.976;8.240;2022-07-29T02:38:27;99851.09;;;16.65;100.00
804;BME280;25687;49.976;8.240;2022-07-29T02:41:16;99840.84;;;16.64;100.00
804;BME280;25687;49.976;8.240;2022-07-29T02:43:43;99848.72;;;16.52;100.00
804;BME280;25687;49.976;8.240;2022-07-29T02:46:14;99847.44;;;16.46;100.00
804;BME280;25687;49.976;8.240;2022-07-29T02:51:33;99849.47;;;16.22;100.00
804;BME280;25687;49.976;8.240;2022-07-29T02:54:05;99843.25;;;16.13;100.00
804;BME280;25687;49.976;8.240;2022-07-29T02:56:33;99834.03;;;16.20;100.00
804;BME280;25687;49.976;8.240;2022-07-29T02:59:05;99833.25;;;16.29;100.00
804;BME280;25687;49.976;8.240;2022-07-29T03:01:32;99829.41;;;16.24;100.00
804;BME280;25687;49.976;8.240;2022-07-29T03:04:01;99820.78;;;16.23;100.00
804;BME280;25687;49.976;8.240;2022-07-29T03:06:28;99822.50;;;16.34;100.00
804;BME280;25687;49.976;8.240;2022-07-29T03:08:55;99821.69;;;16.34;100.00
804;BME280;25687;49.976;8.240;2022-07-29T03:11:20;99825.91;;;16.35;100.00
804;BME280;25687;49.976;8.240;2022-07-29T03:13:47;99826.91;;;16.22;100.00
804;BME280;25687;49.976;8.240;2022-07-29T03:16:12;99823.78;;;16.19;100.00
804;BME280;25687;49.976;8.240;2022-07-29T03:18:39;99825.41;;;15.98;100.00
804;BME280;25687;49.976;8.240;2022-07-29T03:21:04;99830.84;;;15.95;100.00
804;BME280;25687;49.976;8.240;2022-07-29T03:23:30;99827.56;;;15.93;100.00
804;BME280;25687;49.976;8.240;2022-07-29T03:25:56;99826.56;;;16.06;100.00
804;BME280;25687;49.976;8.240;2022-07-29T03:28:21;99826.63;;;16.16;100.00
804;BME280;25687;49.976;8.240;2022-07-29T03:30:48;99828.47;;;16.25;100.00
804;BME280;25687;49.976;8.240;2022-07-29T03:33:13;99817.00;;;16.27;100.00
804;BME280;25687;49.976;8.240;2022-07-29T03:35:39;99823.81;;;16.28;100.00
804;BME280;25687;49.976;8.240;2022-07-29T03:38:04;99822.50;;;16.34;100.00
804;BME280;25687;49.976;8.240;2022-07-29T03:40:34;99821.69;;;16.34;100.00
804;BME280;25687;49.976;8.240;2022-07-29T03:43:02;99820.34;;;16.39;100.00
804;BME280;25687;49.976;8.240;2022-07-29T03:45:30;99821.56;;;16.35;100.00
804;BME280;25687;49.976;8.240;2022-07-29T03:48:00;99827.69;;;16.34;100.00
804;BME280;25687;49.976;8.240;2022-07-29T03:50:27;99826.03;;;16.33;100.00
804;BME280;25687;49.976;8.240;2022-07-29T03:52:53;99825.22;;;16.33;100.00
804;BME280;25687;49.976;8.240;2022-07-29T03:55:19;99825.59;;;16.28;100.00
804;BME280;25687;49.976;8.240;2022-07-29T03:57:45;99829.00;;;16.28;100.00
804;BME280;25687;49.976;8.240;2022-07-29T04:00:11;99832.59;;;16.27;100.00
804;BME280;25687;49.976;8.240;2022-07-29T04:02:38;99832.19;;;16.32;100.00
804;BME280;25687;49.976;8.240;2022-07-29T04:05:04;99835.28;;;16.26;100.00
804;BME280;25687;49.976;8.240;2022-07-29T04:07:30;99837.81;;;16.16;100.00
804;BME280;25687;49.976;8.240;2022-07-29T04:09:55;99836.88;;;16.17;100.00
804;BME280;25687;49.976;8.240;2022-07-29T04:12:20;99836.06;;;16.17;100.00
804;BME280;25687;49.976;8.240;2022-07-29T04:14:46;99847.50;;;16.14;100.00
804;BME280;25687;49.976;8.240;2022-07-29T04:17:11;99846.16;;;16.20;100.00
804;BME280;25687;49.976;8.240;2022-07-29T04:19:37;99844.41;;;16.20;100.00
804;BME280;25687;49.976;8.240;2022-07-29T04:22:02;99845.34;;;16.19;100.00
804;BME280;25687;49.976;8.240;2022-07-29T04:24:28;99851.56;;;16.28;100.00
804;BME280;25687;49.976;8.240;2022-07-29T04:26:53;99859.41;;;16.38;100.00
804;BME280;25687;49.976;8.240;2022-07-29T04:29:19;99858.84;;;16.34;100.00
804;BME280;25687;49.976;8.240;2022-07-29T04:31:45;99864.22;;;16.42;100.00
804;BME280;25687;49.976;8.240;2022-07-29T04:34:11;99857.97;;;16.45;100.00
804;BME280;25687;49.976;8.240;2022-07-29T04:36:37;99859.53;;;16.57;100.00
804;BME280;25687;49.976;8.240;2022-07-29T04:39:02;99853.31;;;16.70;100.00
804;BME280;25687;49.976;8.240;2022-07-29T04:41:28;99860.69;;;16.74;100.00
804;BME280;25687;49.976;8.240;2022-07-29T04:43:53;99860.44;;;16.77;100.00
804;BME280;25687;49.976;8.240;2022-07-29T04:46:19;99857.03;;;16.77;100.00
804;BME280;25687;49.976;8.240;2022-07-29T04:48:47;99856.06;;;16.78;100.00
804;BME280;25687;49.976;8.240;2022-07-29T04:51:16;99856.56;;;16.93;100.00
804;BME280;25687;49.976;8.240;2022-07-29T04:53:42;99858.63;;;16.99;100.00
804;BME280;25687;49.976;8.240;2022-07-29T04:56:07;99858.38;;;17.02;100.00
804;BME280;25687;49.976;8.240;2022-07-29T04:58:36;99860.50;;;17.18;100.00
804;BME280;25687;49.976;8.240;2022-07-29T05:01:02;99851.91;;;17.37;100.00
804;BME280;25687;49.976;8.240;2022-07-29T05:03:28;99851.25;;;17.55;100.00
804;BME280;25687;49.976;8.240;2022-07-29T05:05:53;99857.00;;;17.68;100.00
804;BME280;25687;49.976;8.240;2022-07-29T05:08:19;99848.41;;;17.78;100.00
804;BME280;25687;49.976;8.240;2022-07-29T05:10:44;99847.56;;;17.77;100.00
804;BME280;25687;49.976;8.240;2022-07-29T05:13:10;99848.00;;;18.02;100.00
804;BME280;25687;49.976;8.240;2022-07-29T05:15:36;99846.91;;;18.14;100.00
804;BME280;25687;49.976;8.240;2022-07-29T05:18:01;99853.19;;;18.31;100.00
804;BME280;25687;49.976;8.240;2022-07-29T05:20:28;99846.09;;;18.23;100.00
804;BME280;25687;49.976;8.240;2022-07-29T05:22:58;99853.88;;;18.43;100.00
804;BME280;25687;49.976;8.240;2022-07-29T05:25:25;99863.00;;;18.57;100.00
804;BME280;25687;49.976;8.240;2022-07-29T05:27:51;99859.63;;;18.84;100.00
804;BME280;25687;49.976;8.240;2022-07-29T05:30:17;99855.50;;;18.92;100.00
804;BME280;25687;49.976;8.240;2022-07-29T05:32:42;99857.28;;;18.91;96.33
804;BME280;25687;49.976;8.240;2022-07-29T05:35:08;99849.72;;;18.98;100.00
804;BME280;25687;49.976;8.240;2022-07-29T05:37:33;99859.75;;;19.21;100.00
804;BME280;25687;49.976;8.240;2022-07-29T05:39:59;99850.16;;;18.93;95.28
804;BME280;25687;49.976;8.240;2022-07-29T05:42:25;99854.44;;;19.12;93.67
804;BME280;25687;49.976;8.240;2022-07-29T05:44:51;99858.50;;;19.25;90.43
804;BME280;25687;49.976;8.240;2022-07-29T05:47:17;99864.00;;;19.22;87.23
804;BME280;25687;49.976;8.240;2022-07-29T05:49:42;99857.75;;;19.32;85.66
804;BME280;25687;49.976;8.240;2022-07-29T05:52:08;99863.22;;;19.57;85.03
804;BME280;25687;49.976;8.240;2022-07-29T05:54:34;99867.06;;;19.81;85.37
804;BME280;25687;49.976;8.240;2022-07-29T05:56:59;99866.38;;;19.97;84.60
804;BME280;25687;49.976;8.240;2022-07-29T05:59:25;99870.88;;;20.05;82.82
804;BME280;25687;49.976;8.240;2022-07-29T06:01:50;99876.53;;;20.18;79.65
804;BME280;25687;49.976;8.240;2022-07-29T06:04:15;99875.19;;;20.14;78.49
804;BME280;25687;49.976;8.240;2022-07-29T06:06:41;99879.50;;;20.23;75.21
804;BME280;25687;49.976;8.240;2022-07-29T06:09:06;99879.53;;;20.31;76.21
804;BME280;25687;49.976;8.240;2022-07-29T06:11:33;99879.34;;;20.51;79.07
804;BME280;25687;49.976;8.240;2022-07-29T06:13:58;99875.50;;;20.37;74.11
804;BME280;25687;49.976;8.240;2022-07-29T06:16:23;99876.81;;;20.33;71.08
804;BME280;25687;49.976;8.240;2022-07-29T06:18:49;99869.47;;;20.37;70.54
804;BME280;25687;49.976;8.240;2022-07-29T06:21:14;99879.25;;;20.61;70.08
804;BME280;25687;49.976;8.240;2022-07-29T06:23:39;99877.97;;;20.65;64.18
804;BME280;25687;49.976;8.240;2022-07-29T06:26:05;99876.69;;;20.69;65.74
804;BME280;25687;49.976;8.240;2022-07-29T06:28:32;99879.25;;;20.61;62.65
804;BME280;25687;49.976;8.240;2022-07-29T06:30:57;99882.81;;;20.78;60.76
804;BME280;25687;49.976;8.240;2022-07-29T06:33:23;99880.09;;;20.88;63.25
804;BME280;25687;49.976;8.240;2022-07-29T06:35:49;99872.34;;;21.21;61.08
804;BME280;25687;49.976;8.240;2022-07-29T06:38:15;99876.09;;;21.77;57.92
804;BME280;25687;49.976;8.240;2022-07-29T06:40:43;99874.81;;;22.48;53.89
804;BME280;25687;49.976;8.240;2022-07-29T06:43:35;99877.88;;;23.08;50.98
804;BME280;25687;49.976;8.240;2022-07-29T06:46:05;99871.72;;;23.63;46.93
804;BME280;25687;49.976;8.240;2022-07-29T06:48:32;99883.44;;;24.52;43.98
804;BME280;25687;49.976;8.240;2022-07-29T06:50:58;99886.16;;;24.44;41.86
804;BME280;25687;49.976;8.240;2022-07-29T06:53:25;99888.19;;;24.72;40.91
804;BME280;25687;49.976;8.240;2022-07-29T06:55:51;99886.97;;;25.19;38.82
804;BME280;25687;49.976;8.240;2022-07-29T06:58:16;99895.59;;;25.28;39.45
804;BME280;25687;49.976;8.240;2022-07-29T07:00:46;99895.97;;;25.83;37.64
804;BME280;25687;49.976;8.240;2022-07-29T07:03:11;99893.09;;;26.56;36.99
804;BME280;25687;49.976;8.240;2022-07-29T07:05:37;99898.50;;;26.77;35.05
804;BME280;25687;49.976;8.240;2022-07-29T07:08:02;99899.59;;;26.25;35.63
804;BME280;25687;49.976;8.240;2022-07-29T07:10:28;99892.47;;;26.54;35.86
804;BME280;25687;49.976;8.240;2022-07-29T07:12:54;99900.56;;;27.30;33.83
804;BME280;25687;49.976;8.240;2022-07-29T07:15:19;99908.22;;;27.86;33.45
804;BME280;25687;49.976;8.240;2022-07-29T07:17:48;99904.13;;;28.58;32.02
804;BME280;25687;49.976;8.240;2022-07-29T07:20:14;99910.81;;;29.26;31.16
804;BME280;25687;49.976;8.240;2022-07-29T07:22:40;99907.56;;;28.78;30.95
804;BME280;25687;49.976;8.240;2022-07-29T07:25:05;99918.06;;;28.98;31.20
804;BME280;25687;49.976;8.240;2022-07-29T07:27:31;99924.19;;;29.51;29.60
804;BME280;25687;49.976;8.240;2022-07-29T07:29:57;99921.84;;;29.23;30.53
804;BME280;25687;49.976;8.240;2022-07-29T07:32:22;99914.91;;;29.35;30.14
804;BME280;25687;49.976;8.240;2022-07-29T07:34:47;99923.84;;;30.05;28.80
804;BME280;25687;49.976;8.240;2022-07-29T07:37:13;99932.06;;;30.22;28.46
804;BME280;25687;49.976;8.240;2022-07-29T07:39:39;99924.75;;;29.85;28.14
804;BME280;25687;49.976;8.240;2022-07-29T07:42:05;99928.13;;;30.06;28.68
804;BME280;25687;49.976;8.240;2022-07-29T07:44:30;99930.53;;;30.77;27.79
804;BME280;25687;49.976;8.240;2022-07-29T07:46:55;99922.72;;;31.92;26.18
804;BME280;25687;49.976;8.240;2022-07-29T07:49:21;99926.66;;;32.48;24.80
804;BME280;25687;49.976;8.240;2022-07-29T07:51:46;99922.97;;;32.38;24.87
804;BME280;25687;49.976;8.240;2022-07-29T07:54:11;99926.50;;;32.08;25.56
804;BME280;25687;49.976;8.240;2022-07-29T07:56:37;99923.13;;;33.24;23.75
804;BME280;25687;49.976;8.240;2022-07-29T07:59:02;99929.97;;;33.20;24.08
804;BME280;25687;49.976;8.240;2022-07-29T08:01:27;99920.56;;;33.58;23.07
804;BME280;25687;49.976;8.240;2022-07-29T08:03:53;99932.38;;;34.48;22.42
804;BME280;25687;49.976;8.240;2022-07-29T08:06:18;99917.78;;;32.95;23.77
804;BME280;25687;49.976;8.240;2022-07-29T08:08:43;99922.66;;;33.39;23.64
804;BME280;25687;49.976;8.240;2022-07-29T08:11:09;99927.44;;;31.59;25.95
804;BME280;25687;49.976;8.240;2022-07-29T08:13:35;99918.78;;;32.54;25.93
804;BME280;25687;49.976;8.240;2022-07-29T08:16:00;99928.31;;;34.45;22.71
804;BME280;25687;49.976;8.240;2022-07-29T08:18:28;99926.38;;;34.23;22.85
804;BME280;25687;49.976;8.240;2022-07-29T08:20:54;99932.00;;;34.83;21.87
804;BME280;25687;49.976;8.240;2022-07-29T08:23:21;99939.00;;;35.12;21.08
804;BME280;25687;49.976;8.240;2022-07-29T08:25:48;99944.34;;;34.45;22.26
804;BME280;25687;49.976;8.240;2022-07-29T08:28:13;99928.09;;;33.04;23.95
804;BME280;25687;49.976;8.240;2022-07-29T08:30:39;99927.84;;;34.70;21.87
804;BME280;25687;49.976;8.240;2022-07-29T08:33:05;99946.03;;;35.18;21.64
804;BME280;25687;49.976;8.240;2022-07-29T08:35:30;99937.47;;;35.38;20.93
804;BME280;25687;49.976;8.240;2022-07-29T08:37:55;99933.31;;;36.23;21.03
804;BME280;25687;49.976;8.240;2022-07-29T08:40:22;99941.28;;;36.60;19.79
804;BME280;25687;49.976;8.240;2022-07-29T08:42:48;99933.50;;;35.46;20.87
804;BME280;25687;49.976;8.240;2022-07-29T08:45:14;99939.16;;;34.38;22.05
804;BME280;25687;49.976;8.240;2022-07-29T08:47:40;99943.09;;;32.81;24.32
804;BME280;25687;49.976;8.240;2022-07-29T08:50:06;99939.06;;;33.07;24.01
804;BME280;25687;49.976;8.240;2022-07-29T08:52:35;99934.84;;;33.52;23.07
804;BME280;25687;49.976;8.240;2022-07-29T08:55:01;99929.97;;;33.78;23.24
804;BME280;25687;49.976;8.240;2022-07-29T08:57:27;99933.91;;;33.58;23.75
804;BME280;25687;49.976;8.240;2022-07-29T08:59:54;99938.75;;;33.78;23.02
804;BME280;25687;49.976;8.240;2022-07-29T09:02:21;99934.69;;;33.88;23.38
804;BME280;25687;49.976;8.240;2022-07-29T09:04:47;99936.53;;;33.41;23.82
804;BME280;25687;49.976;8.240;2022-07-29T09:07:17;99936.41;;;34.72;22.51
804;BME280;25687;49.976;8.240;2022-07-29T09:09:44;99935.06;;;34.92;22.15
804;BME280;25687;49.976;8.240;2022-07-29T09:12:10;99927.50;;;33.76;23.89
804;BME280;25687;49.976;8.240;2022-07-29T09:14:40;99927.53;;;34.67;22.76
804;BME280;25687;49.976;8.240;2022-07-29T09:17:06;99927.72;;;34.82;22.86
804;BME280;25687;49.976;8.240;2022-07-29T09:19:33;99928.25;;;35.89;21.08
804;BME280;25687;49.976;8.240;2022-07-29T09:22:04;99928.63;;;35.15;22.22
804;BME280;25687;49.976;8.240;2022-07-29T09:26:59;99927.38;;;35.23;22.13
804;BME280;25687;49.976;8.240;2022-07-29T09:29:25;99930.81;;;38.15;19.73
804;BME280;25687;49.976;8.240;2022-07-29T09:31:52;99920.63;;;36.50;20.40
804;BME280;25687;49.976;8.240;2022-07-29T09:34:26;99925.69;;;36.47;20.77
804;BME280;25687;49.976;8.240;2022-07-29T09:36:53;99918.56;;;34.00;24.15
804;BME280;25687;49.976;8.240;2022-07-29T09:39:32;99915.00;;;33.02;25.33
804;BME280;25687;49.976;8.240;2022-07-29T09:42:04;99916.81;;;32.61;25.40
804;BME280;25687;49.976;8.240;2022-07-29T09:44:46;99913.69;;;34.14;23.58
804;BME280;25687;49.976;8.240;2022-07-29T09:47:13;99917.53;;;32.32;25.99
804;BME280;25687;49.976;8.240;2022-07-29T09:49:59;99911.06;;;32.28;27.06
804;BME280;25687;49.976;8.240;2022-07-29T09:52:28;99918.66;;;32.84;26.55
804;BME280;25687;49.976;8.240;2022-07-29T09:55:05;99911.72;;;33.87;25.05
804;BME280;25687;49.976;8.240;2022-07-29T09:57:31;99906.44;;;35.15;23.49
804;BME280;25687;49.976;8.240;2022-07-29T10:00:00;99916.16;;;34.77;22.95
804;BME280;25687;49.976;8.240;2022-07-29T10:02:32;99909.91;;;34.09;24.68
804;BME280;25687;49.976;8.240;2022-07-29T10:05:00;99910.63;;;34.83;23.38
804;BME280;25687;49.976;8.240;2022-07-29T10:07:42;99911.56;;;34.94;23.27
804;BME280;25687;49.976;8.240;2022-07-29T10:10:08;99914.25;;;34.50;23.85
804;BME280;25687;49.976;8.240;2022-07-29T10:12:33;99904.41;;;33.48;25.28
804;BME280;25687;49.976;8.240;2022-07-29T10:15:01;99918.25;;;34.13;24.18
804;BME280;25687;49.976;8.240;2022-07-29T10:17:27;99915.69;;;32.33;26.53
804;BME280;25687;49.976;8.240;2022-07-29T10:19:53;99909.53;;;33.84;24.95
804;BME280;25687;49.976;8.240;2022-07-29T10:22:18;99913.38;;;35.11;23.06
804;BME280;25687;49.976;8.240;2022-07-29T10:24:44;99905.91;;;35.40;22.79
804;BME280;25687;49.976;8.240;2022-07-29T10:27:09;99910.31;;;34.01;24.57
804;BME280;25687;49.976;8.240;2022-07-29T10:29:35;99905.47;;;32.54;26.30
804;BME280;25687;49.976;8.240;2022-07-29T10:34:33;99900.63;;;31.18;27.93
804;BME280;25687;49.976;8.240;2022-07-29T10:37:22;99906.41;;;34.26;23.89
804;BME280;25687;49.976;8.240;2022-07-29T10:43:36;99894.94;;;31.45;27.42
804;BME280;25687;49.976;8.240;2022-07-29T10:46:04;99886.53;;;32.91;27.20
804;BME280;25687;49.976;8.240;2022-07-29T10:48:30;99893.94;;;34.93;24.10
804;BME280;25687;49.976;8.240;2022-07-29T10:50:57;99891.59;;;35.51;23.06
804;BME280;25687;49.976;8.240;2022-07-29T10:53:24;99894.03;;;34.20;23.80
804;BME280;25687;49.976;8.240;2022-07-29T10:56:24;99883.50;;;32.46;25.80
804;BME280;25687;49.976;8.240;2022-07-29T11:01:54;99879.50;;;30.56;28.80
804;BME280;25687;49.976;8.240;2022-07-29T11:07:10;99870.19;;;29.45;31.10
804;BME280;25687;49.976;8.240;2022-07-29T11:09:36;99863.03;;;29.53;31.35
804;BME280;25687;49.976;8.240;2022-07-29T11:12:03;99863.88;;;29.01;31.68
804;BME280;25687;49.976;8.240;2022-07-29T11:17:22;99855.56;;;28.32;33.64
804;BME280;25687;49.976;8.240;2022-07-29T11:19:48;99862.22;;;28.68;33.28
804;BME280;25687;49.976;8.240;2022-07-29T11:22:32;99855.03;;;28.82;33.67
804;BME280;25687;49.976;8.240;2022-07-29T11:25:14;99845.09;;;28.71;33.45
804;BME280;25687;49.976;8.240;2022-07-29T11:27:40;99853.03;;;28.57;33.72
804;BME280;25687;49.976;8.240;2022-07-29T11:30:06;99842.28;;;28.45;33.73
804;BME280;25687;49.976;8.240;2022-07-29T11:32:37;99840.28;;;28.34;34.26
804;BME280;25687;49.976;8.240;2022-07-29T11:37:42;99849.41;;;29.10;33.13
804;BME280;25687;49.976;8.240;2022-07-29T11:40:10;99843.75;;;29.00;33.47
804;BME280;25687;49.976;8.240;2022-07-29T11:42:37;99851.03;;;29.43;33.04
804;BME280;25687;49.976;8.240;2022-07-29T11:45:16;99841.50;;;29.68;32.68
804;BME280;25687;49.976;8.240;2022-07-29T11:50:33;99851.41;;;29.79;33.21
804;BME280;25687;49.976;8.240;2022-07-29T11:53:00;99853.56;;;29.63;31.92
804;BME280;25687;49.976;8.240;2022-07-29T11:55:26;99845.31;;;29.78;32.67
804;BME280;25687;49.976;8.240;2022-07-29T11:57:56;99840.84;;;29.47;31.98
804;BME280;25687;49.976;8.240;2022-07-29T12:00:37;99842.13;;;29.70;33.26
804;BME280;25687;49.976;8.240;2022-07-29T12:03:05;99843.88;;;29.51;31.93
804;BME280;25687;49.976;8.240;2022-07-29T12:05:40;99836.25;;;28.90;32.73
804;BME280;25687;49.976;8.240;2022-07-29T12:08:11;99825.50;;;28.78;33.27
804;BME280;25687;49.976;8.240;2022-07-29T12:10:37;99824.81;;;29.28;33.11
804;BME280;25687;49.976;8.240;2022-07-29T12:13:03;99832.69;;;29.49;33.48
804;BME280;25687;49.976;8.240;2022-07-29T12:15:29;99826.75;;;29.78;32.04
804;BME280;25687;49.976;8.240;2022-07-29T12:17:54;99824.38;;;29.38;32.13
804;BME280;25687;49.976;8.240;2022-07-29T12:20:27;99825.63;;;28.97;32.94
804;BME280;25687;49.976;8.240;2022-07-29T12:22:53;99821.00;;;28.86;33.06
804;BME280;25687;49.976;8.240;2022-07-29T12:25:20;99820.38;;;28.90;32.90
804;BME280;25687;49.976;8.240;2022-07-29T12:27:47;99812.00;;;29.00;32.98
804;BME280;25687;49.976;8.240;2022-07-29T12:30:22;99811.91;;;29.45;32.59
804;BME280;25687;49.976;8.240;2022-07-29T12:32:48;99801.59;;;29.62;32.05
804;BME280;25687;49.976;8.240;2022-07-29T12:35:18;99811.16;;;29.63;31.74
804;BME280;25687;49.976;8.240;2022-07-29T12:37:46;99797.75;;;29.84;32.05
804;BME280;25687;49.976;8.240;2022-07-29T12:40:17;99798.59;;;30.40;32.43
804;BME280;25687;49.976;8.240;2022-07-29T12:43:05;99804.59;;;30.54;30.25
804;BME280;25687;49.976;8.240;2022-07-29T12:45:32;99795.88;;;30.84;30.92
804;BME280;25687;49.976;8.240;2022-07-29T12:47:58;99804.94;;;31.06;29.76
804;BME280;25687;49.976;8.240;2022-07-29T12:50:24;99803.06;;;30.95;29.34
804;BME280;25687;49.976;8.240;2022-07-29T12:52:50;99800.72;;;30.56;29.45
804;BME280;25687;49.976;8.240;2022-07-29T12:55:15;99793.66;;;30.06;30.28
804;BME280;25687;49.976;8.240;2022-07-29T12:57:49;99791.59;;;29.90;30.65
804;BME280;25687;49.976;8.240;2022-07-29T13:00:22;99787.03;;;29.97;31.08
804;BME280;25687;49.976;8.240;2022-07-29T13:02:58;99788.00;;;30.03;30.66
804;BME280;25687;49.976;8.240;2022-07-29T13:05:24;99787.09;;;30.65;31.48
804;BME280;25687;49.976;8.240;2022-07-29T13:08:14;99787.66;;;31.16;31.45
804;BME280;25687;49.976;8.240;2022-07-29T13:10:41;99796.53;;;31.10;30.60
804;BME280;25687;49.976;8.240;2022-07-29T13:13:11;99792.78;;;30.68;29.40
804;BME280;25687;49.976;8.240;2022-07-29T13:15:39;99792.56;;;31.00;30.58
804;BME280;25687;49.976;8.240;2022-07-29T13:18:28;99794.31;;;31.06;29.69
804;BME280;25687;49.976;8.240;2022-07-29T13:20:54;99782.50;;;31.33;29.47
804;BME280;25687;49.976;8.240;2022-07-29T13:23:19;99780.44;;;31.47;29.17
804;BME280;25687;49.976;8.240;2022-07-29T13:25:45;99780.50;;;31.16;29.95
804;BME280;25687;49.976;8.240;2022-07-29T13:28:10;99786.53;;;31.23;29.37
804;BME280;25687;49.976;8.240;2022-07-29T13:30:36;99778.97;;;31.86;28.72
804;BME280;25687;49.976;8.240;2022-07-29T13:33:02;99786.50;;;31.66;29.11
804;BME280;25687;49.976;8.240;2022-07-29T13:35:28;99783.25;;;31.76;28.81
804;BME280;25687;49.976;8.240;2022-07-29T13:37:54;99792.00;;;31.52;29.99
804;BME280;25687;49.976;8.240;2022-07-29T13:40:20;99789.19;;;30.63;32.33
804;BME280;25687;49.976;8.240;2022-07-29T13:42:45;99794.19;;;29.71;33.84
804;BME280;25687;49.976;8.240;2022-07-29T13:45:11;99786.69;;;29.04;34.91
804;BME280;25687;49.976;8.240;2022-07-29T13:47:37;99792.88;;;28.91;35.35
804;BME280;25687;49.976;8.240;2022-07-29T13:50:04;99797.91;;;29.38;34.73
804;BME280;25687;49.976;8.240;2022-07-29T13:52:30;99782.84;;;29.39;34.14